sensor_id;sensor_type;location;lat;lon;timestamp;pressure;altitude;pressure_sealevel;temperature
73734;BMP280;62039;50.000;9.064;2022-11-30T00:01:47;100743.75;;;7.20
73734;BMP280;62039;50.000;9.064;2022-11-30T00:04:14;100748.81;;;7.22
73734;BMP280;62039;50.000;9.064;2022-11-30T00:06:42;100747.03;;;7.22
73734;BMP280;62039;50.000;9.064;2022-11-30T00:09:08;100756.63;;;7.22
73734;BMP280;62039;50.000;9.064;2022-11-30T00:11:35;100750.59;;;7.21
73734;BMP280;62039;50.000;9.064;2022-11-30T00:14:02;100754.81;;;7.22
73734;BMP280;62039;50.000;9.064;2022-11-30T00:16:28;100747.03;;;7.22
73734;BMP280;62039;50.000;9.064;2022-11-30T00:18:55;100748.69;;;7.23
73734;BMP280;62039;50.000;9.064;2022-11-30T00:21:22;100746.06;;;7.23
73734;BMP280;62039;50.000;9.064;2022-11-30T00:23:50;100739.94;;;7.24
73734;BMP280;62039;50.000;9.064;2022-11-30T00:26:18;100743.47;;;7.23
73734;BMP280;62039;50.000;9.064;2022-11-30T00:28:44;100741.81;;;7.22
73734;BMP280;62039;50.000;9.064;2022-11-30T00:31:13;100743.47;;;7.23
73734;BMP280;62039;50.000;9.064;2022-11-30T00:33:40;100753.03;;;7.23
73734;BMP280;62039;50.000;9.064;2022-11-30T00:36:09;100745.25;;;7.23
73734;BMP280;62039;50.000;9.064;2022-11-30T00:38:36;100751.28;;;7.23
73734;BMP280;62039;50.000;9.064;2022-11-30T00:41:04;100746.91;;;7.24
73734;BMP280;62039;50.000;9.064;2022-11-30T00:43:31;100741.81;;;7.22
73734;BMP280;62039;50.000;9.064;2022-11-30T00:45:58;100747.03;;;7.22
73734;BMP280;62039;50.000;9.064;2022-11-30T00:48:25;100745.41;;;7.21
73734;BMP280;62039;50.000;9.064;2022-11-30T00:50:52;100746.34;;;7.20
73734;BMP280;62039;50.000;9.064;2022-11-30T00:53:19;100738.56;;;7.20
73734;BMP280;62039;50.000;9.064;2022-11-30T00:55:47;100742.94;;;7.20
73734;BMP280;62039;50.000;9.064;2022-11-30T00:58:15;100742.94;;;7.20
73734;BMP280;62039;50.000;9.064;2022-11-30T01:00:42;100741.16;;;7.20
73734;BMP280;62039;50.000;9.064;2022-11-30T01:03:09;100748.94;;;7.20
73734;BMP280;62039;50.000;9.064;2022-11-30T01:05:36;100738.56;;;7.20
73734;BMP280;62039;50.000;9.064;2022-11-30T01:08:05;100740.22;;;7.21
73734;BMP280;62039;50.000;9.064;2022-11-30T01:10:33;100735.00;;;7.21
73734;BMP280;62039;50.000;9.064;2022-11-30T01:12:59;100735.00;;;7.21
73734;BMP280;62039;50.000;9.064;2022-11-30T01:15:28;100731.44;;;7.22
73734;BMP280;62039;50.000;9.064;2022-11-30T01:17:55;100732.41;;;7.21
73734;BMP280;62039;50.000;9.064;2022-11-30T01:20:21;100747.03;;;7.22
73734;BMP280;62039;50.000;9.064;2022-11-30T01:22:48;100746.22;;;7.22
73734;BMP280;62039;50.000;9.064;2022-11-30T01:25:15;100751.44;;;7.22
73734;BMP280;62039;50.000;9.064;2022-11-30T01:27:41;100750.59;;;7.21
73734;BMP280;62039;50.000;9.064;2022-11-30T01:30:09;100753.88;;;7.23
73734;BMP280;62039;50.000;9.064;2022-11-30T01:32:37;100758.25;;;7.23
73734;BMP280;62039;50.000;9.064;2022-11-30T01:35:04;100760.00;;;7.22
73734;BMP280;62039;50.000;9.064;2022-11-30T01:37:31;100753.88;;;7.23
73734;BMP280;62039;50.000;9.064;2022-11-30T01:39:57;100753.03;;;7.23
73734;BMP280;62039;50.000;9.064;2022-11-30T01:42:24;100759.06;;;7.23
73734;BMP280;62039;50.000;9.064;2022-11-30T01:44:55;100752.22;;;7.22
73734;BMP280;62039;50.000;9.064;2022-11-30T01:47:28;100759.91;;;7.24
73734;BMP280;62039;50.000;9.064;2022-11-30T01:50:01;100766.88;;;7.23
73734;BMP280;62039;50.000;9.064;2022-11-30T01:52:32;100759.91;;;7.24
73734;BMP280;62039;50.000;9.064;2022-11-30T01:55:07;100767.56;;;7.25
73734;BMP280;62039;50.000;9.064;2022-11-30T01:57:36;100759.06;;;7.23
73734;BMP280;62039;50.000;9.064;2022-11-30T02:00:06;100759.91;;;7.24
73734;BMP280;62039;50.000;9.064;2022-11-30T02:02:38;100765.09;;;7.24
73734;BMP280;62039;50.000;9.064;2022-11-30T02:05:08;100765.09;;;7.24
73734;BMP280;62039;50.000;9.064;2022-11-30T02:07:36;100769.47;;;7.23
73734;BMP280;62039;50.000;9.064;2022-11-30T02:10:03;100761.66;;;7.23
73734;BMP280;62039;50.000;9.064;2022-11-30T02:12:36;100758.25;;;7.23
73734;BMP280;62039;50.000;9.064;2022-11-30T02:15:08;100764.28;;;7.23
73734;BMP280;62039;50.000;9.064;2022-11-30T02:17:41;100764.28;;;7.23
73734;BMP280;62039;50.000;9.064;2022-11-30T02:20:34;100767.81;;;7.22
73734;BMP280;62039;50.000;9.064;2022-11-30T02:26:17;100771.38;;;7.21
73734;BMP280;62039;50.000;9.064;2022-11-30T02:29:04;100773.16;;;7.21
73734;BMP280;62039;50.000;9.064;2022-11-30T02:31:37;100764.53;;;7.20
73734;BMP280;62039;50.000;9.064;2022-11-30T02:34:06;100764.53;;;7.20
73734;BMP280;62039;50.000;9.064;2022-11-30T02:36:35;100769.72;;;7.20
73734;BMP280;62039;50.000;9.064;2022-11-30T02:39:03;100767.03;;;7.22
73734;BMP280;62039;50.000;9.064;2022-11-30T02:41:34;100760.84;;;7.23
73734;BMP280;62039;50.000;9.064;2022-11-30T02:44:06;100759.06;;;7.23
73734;BMP280;62039;50.000;9.064;2022-11-30T02:46:40;100763.31;;;7.24
73734;BMP280;62039;50.000;9.064;2022-11-30T02:49:14;100772.06;;;7.23
73734;BMP280;62039;50.000;9.064;2022-11-30T02:51:43;100766.88;;;7.23
73734;BMP280;62039;50.000;9.064;2022-11-30T02:54:10;100759.91;;;7.24
73734;BMP280;62039;50.000;9.064;2022-11-30T02:56:37;100765.09;;;7.24
73734;BMP280;62039;50.000;9.064;2022-11-30T02:59:05;100765.09;;;7.24
73734;BMP280;62039;50.000;9.064;2022-11-30T03:01:31;100770.28;;;7.24
73734;BMP280;62039;50.000;9.064;2022-11-30T03:03:58;100771.13;;;7.24
73734;BMP280;62039;50.000;9.064;2022-11-30T03:06:25;100773.72;;;7.24
73734;BMP280;62039;50.000;9.064;2022-11-30T03:08:51;100765.91;;;7.24
73734;BMP280;62039;50.000;9.064;2022-11-30T03:11:18;100779.75;;;7.25
73734;BMP280;62039;50.000;9.064;2022-11-30T03:13:44;100780.56;;;7.25
73734;BMP280;62039;50.000;9.064;2022-11-30T03:16:12;100782.34;;;7.25
73734;BMP280;62039;50.000;9.064;2022-11-30T03:18:39;100784.13;;;7.24
73734;BMP280;62039;50.000;9.064;2022-11-30T03:21:07;100794.50;;;7.24
73734;BMP280;62039;50.000;9.064;2022-11-30T03:23:34;100791.91;;;7.24
73734;BMP280;62039;50.000;9.064;2022-11-30T03:26:01;100791.91;;;7.24
73734;BMP280;62039;50.000;9.064;2022-11-30T03:28:28;100784.13;;;7.24
73734;BMP280;62039;50.000;9.064;2022-11-30T03:30:55;100790.25;;;7.23
73734;BMP280;62039;50.000;9.064;2022-11-30T03:33:23;100785.06;;;7.23
73734;BMP280;62039;50.000;9.064;2022-11-30T03:35:57;100780.81;;;7.22
73734;BMP280;62039;50.000;9.064;2022-11-30T03:38:24;100779.19;;;7.21
73734;BMP280;62039;50.000;9.064;2022-11-30T03:40:58;100785.44;;;7.19
73734;BMP280;62039;50.000;9.064;2022-11-30T03:43:25;100787.34;;;7.17
73734;BMP280;62039;50.000;9.064;2022-11-30T03:45:51;100790.75;;;7.17
73734;BMP280;62039;50.000;9.064;2022-11-30T03:48:18;100790.75;;;7.17
73734;BMP280;62039;50.000;9.064;2022-11-30T03:50:46;100792.41;;;7.18
73734;BMP280;62039;50.000;9.064;2022-11-30T03:53:12;100786.41;;;7.18
73734;BMP280;62039;50.000;9.064;2022-11-30T03:55:39;100790.75;;;7.17
73734;BMP280;62039;50.000;9.064;2022-11-30T03:58:05;100795.97;;;7.17
73734;BMP280;62039;50.000;9.064;2022-11-30T04:00:32;100798.56;;;7.17
73734;BMP280;62039;50.000;9.064;2022-11-30T04:02:59;100790.75;;;7.17
73734;BMP280;62039;50.000;9.064;2022-11-30T04:05:25;100789.81;;;7.18
73734;BMP280;62039;50.000;9.064;2022-11-30T04:07:53;100789.69;;;7.20
73734;BMP280;62039;50.000;9.064;2022-11-30T04:10:20;100794.91;;;7.20
73734;BMP280;62039;50.000;9.064;2022-11-30T04:12:47;100789.69;;;7.20
73734;BMP280;62039;50.000;9.064;2022-11-30T04:15:13;100796.41;;;7.22
73734;BMP280;62039;50.000;9.064;2022-11-30T04:17:40;100793.78;;;7.22
73734;BMP280;62039;50.000;9.064;2022-11-30T04:20:07;100792.03;;;7.23
73734;BMP280;62039;50.000;9.064;2022-11-30T04:22:34;100794.50;;;7.24
73734;BMP280;62039;50.000;9.064;2022-11-30T04:25:02;100791.91;;;7.24
73734;BMP280;62039;50.000;9.064;2022-11-30T04:27:28;100800.66;;;7.23
73734;BMP280;62039;50.000;9.064;2022-11-30T04:29:55;100797.94;;;7.25
73734;BMP280;62039;50.000;9.064;2022-11-30T04:32:22;100798.75;;;7.25
73734;BMP280;62039;50.000;9.064;2022-11-30T04:34:48;100802.19;;;7.26
73734;BMP280;62039;50.000;9.064;2022-11-30T04:37:15;100799.69;;;7.24
73734;BMP280;62039;50.000;9.064;2022-11-30T04:39:42;100795.44;;;7.23
73734;BMP280;62039;50.000;9.064;2022-11-30T04:42:10;100805.84;;;7.23
73734;BMP280;62039;50.000;9.064;2022-11-30T04:44:36;100793.78;;;7.22
73734;BMP280;62039;50.000;9.064;2022-11-30T04:47:03;100793.00;;;7.22
73734;BMP280;62039;50.000;9.064;2022-11-30T04:49:30;100792.19;;;7.21
73734;BMP280;62039;50.000;9.064;2022-11-30T04:51:56;100791.19;;;7.22
73734;BMP280;62039;50.000;9.064;2022-11-30T04:54:23;100790.53;;;7.20
73734;BMP280;62039;50.000;9.064;2022-11-30T04:56:49;100792.31;;;7.20
73734;BMP280;62039;50.000;9.064;2022-11-30T04:59:17;100792.41;;;7.18
73734;BMP280;62039;50.000;9.064;2022-11-30T05:01:44;100796.22;;;7.14
73734;BMP280;62039;50.000;9.064;2022-11-30T05:04:10;100793.63;;;7.14
73734;BMP280;62039;50.000;9.064;2022-11-30T05:06:37;100799.06;;;7.11
73734;BMP280;62039;50.000;9.064;2022-11-30T05:09:04;100804.38;;;7.10
73734;BMP280;62039;50.000;9.064;2022-11-30T05:11:30;100803.81;;;7.06
73734;BMP280;62039;50.000;9.064;2022-11-30T05:13:57;100808.44;;;7.02
73734;BMP280;62039;50.000;9.064;2022-11-30T05:16:25;100805.28;;;6.99
73734;BMP280;62039;50.000;9.064;2022-11-30T05:18:51;100801.97;;;6.97
73734;BMP280;62039;50.000;9.064;2022-11-30T05:21:18;100808.09;;;6.96
73734;BMP280;62039;50.000;9.064;2022-11-30T05:23:45;100799.63;;;6.94
73734;BMP280;62039;50.000;9.064;2022-11-30T05:26:11;100813.56;;;6.93
73734;BMP280;62039;50.000;9.064;2022-11-30T05:28:38;100812.75;;;6.92
73734;BMP280;62039;50.000;9.064;2022-11-30T05:31:05;100810.25;;;6.91
73734;BMP280;62039;50.000;9.064;2022-11-30T05:33:33;100810.25;;;6.91
73734;BMP280;62039;50.000;9.064;2022-11-30T05:36:00;100817.13;;;6.92
73734;BMP280;62039;50.000;9.064;2022-11-30T05:38:32;100817.13;;;6.92
73734;BMP280;62039;50.000;9.064;2022-11-30T05:41:02;100811.91;;;6.92
73734;BMP280;62039;50.000;9.064;2022-11-30T05:43:28;100815.34;;;6.92
73734;BMP280;62039;50.000;9.064;2022-11-30T05:45:58;100813.56;;;6.93
73734;BMP280;62039;50.000;9.064;2022-11-30T05:48:24;100817.13;;;6.92
73734;BMP280;62039;50.000;9.064;2022-11-30T05:50:52;100818.06;;;6.91
73734;BMP280;62039;50.000;9.064;2022-11-30T05:53:19;100821.75;;;6.88
73734;BMP280;62039;50.000;9.064;2022-11-30T05:55:46;100819.25;;;6.87
73734;BMP280;62039;50.000;9.064;2022-11-30T05:58:12;100817.63;;;6.86
73734;BMP280;62039;50.000;9.064;2022-11-30T06:00:39;100814.06;;;6.87
73734;BMP280;62039;50.000;9.064;2022-11-30T06:03:05;100820.09;;;6.87
73734;BMP280;62039;50.000;9.064;2022-11-30T06:05:33;100820.78;;;6.89
73734;BMP280;62039;50.000;9.064;2022-11-30T06:08:01;100824.06;;;6.91
73734;BMP280;62039;50.000;9.064;2022-11-30T06:10:28;100817.94;;;6.92
73734;BMP280;62039;50.000;9.064;2022-11-30T06:12:54;100824.78;;;6.93
73734;BMP280;62039;50.000;9.064;2022-11-30T06:15:21;100823.84;;;6.94
73734;BMP280;62039;50.000;9.064;2022-11-30T06:17:47;100827.25;;;6.95
73734;BMP280;62039;50.000;9.064;2022-11-30T06:20:14;100828.88;;;6.96
73734;BMP280;62039;50.000;9.064;2022-11-30T06:22:44;100829.72;;;6.96
73734;BMP280;62039;50.000;9.064;2022-11-30T06:25:12;100832.31;;;6.96
73734;BMP280;62039;50.000;9.064;2022-11-30T06:27:38;100831.63;;;6.94
73734;BMP280;62039;50.000;9.064;2022-11-30T06:30:06;100835.84;;;6.95
73734;BMP280;62039;50.000;9.064;2022-11-30T06:32:32;100831.63;;;6.94
73734;BMP280;62039;50.000;9.064;2022-11-30T06:34:59;100836.81;;;6.94
73734;BMP280;62039;50.000;9.064;2022-11-30T06:37:26;100836.00;;;6.94
73734;BMP280;62039;50.000;9.064;2022-11-30T06:39:52;100832.56;;;6.93
73734;BMP280;62039;50.000;9.064;2022-11-30T06:42:36;100828.22;;;6.94
73734;BMP280;62039;50.000;9.064;2022-11-30T06:45:03;100829.16;;;6.93
73734;BMP280;62039;50.000;9.064;2022-11-30T06:47:31;100842.03;;;6.94
73734;BMP280;62039;50.000;9.064;2022-11-30T06:49:57;100835.84;;;6.95
73734;BMP280;62039;50.000;9.064;2022-11-30T06:52:24;100836.69;;;6.96
73734;BMP280;62039;50.000;9.064;2022-11-30T06:54:51;100838.34;;;6.97
73734;BMP280;62039;50.000;9.064;2022-11-30T06:57:17;100834.91;;;6.96
73734;BMP280;62039;50.000;9.064;2022-11-30T06:59:45;100833.97;;;6.97
73734;BMP280;62039;50.000;9.064;2022-11-30T07:02:13;100838.34;;;6.97
73734;BMP280;62039;50.000;9.064;2022-11-30T07:04:44;100841.75;;;6.97
73734;BMP280;62039;50.000;9.064;2022-11-30T07:07:11;100837.41;;;6.98
73734;BMP280;62039;50.000;9.064;2022-11-30T07:09:38;100838.22;;;6.98
73734;BMP280;62039;50.000;9.064;2022-11-30T07:12:05;100839.03;;;6.99
73734;BMP280;62039;50.000;9.064;2022-11-30T07:14:32;100835.50;;;7.00
73734;BMP280;62039;50.000;9.064;2022-11-30T07:17:00;100842.22;;;7.02
73734;BMP280;62039;50.000;9.064;2022-11-30T07:19:27;100843.97;;;7.02
73734;BMP280;62039;50.000;9.064;2022-11-30T07:21:53;100837.97;;;7.01
73734;BMP280;62039;50.000;9.064;2022-11-30T07:24:20;100842.34;;;7.01
73734;BMP280;62039;50.000;9.064;2022-11-30T07:26:46;100840.69;;;7.00
73734;BMP280;62039;50.000;9.064;2022-11-30T07:29:13;100850.16;;;7.01
73734;BMP280;62039;50.000;9.064;2022-11-30T07:31:39;100847.53;;;7.01
73734;BMP280;62039;50.000;9.064;2022-11-30T07:34:08;100845.06;;;6.99
73734;BMP280;62039;50.000;9.064;2022-11-30T07:36:35;100846.84;;;6.99
73734;BMP280;62039;50.000;9.064;2022-11-30T07:39:02;100848.50;;;7.00
73734;BMP280;62039;50.000;9.064;2022-11-30T07:41:28;100852.75;;;7.01
73734;BMP280;62039;50.000;9.064;2022-11-30T07:43:55;100840.69;;;7.00
73734;BMP280;62039;50.000;9.064;2022-11-30T07:46:22;100848.38;;;7.01
73734;BMP280;62039;50.000;9.064;2022-11-30T07:48:48;100845.63;;;7.03
73734;BMP280;62039;50.000;9.064;2022-11-30T07:51:18;100848.13;;;7.04
73734;BMP280;62039;50.000;9.064;2022-11-30T07:53:45;100851.53;;;7.05
73734;BMP280;62039;50.000;9.064;2022-11-30T07:56:13;100845.41;;;7.06
73734;BMP280;62039;50.000;9.064;2022-11-30T07:58:40;100854.84;;;7.07
73734;BMP280;62039;50.000;9.064;2022-11-30T08:01:08;100859.88;;;7.08
73734;BMP280;62039;50.000;9.064;2022-11-30T08:03:36;100864.28;;;7.08
73734;BMP280;62039;50.000;9.064;2022-11-30T08:06:05;100860.72;;;7.09
73734;BMP280;62039;50.000;9.064;2022-11-30T08:08:35;100853.75;;;7.10
73734;BMP280;62039;50.000;9.064;2022-11-30T08:11:04;100858.94;;;7.10
73734;BMP280;62039;50.000;9.064;2022-11-30T08:13:31;100855.41;;;7.11
73734;BMP280;62039;50.000;9.064;2022-11-30T08:16:00;100866.75;;;7.10
73734;BMP280;62039;50.000;9.064;2022-11-30T08:18:27;100860.72;;;7.09
73734;BMP280;62039;50.000;9.064;2022-11-30T08:20:57;100864.84;;;7.12
73734;BMP280;62039;50.000;9.064;2022-11-30T08:23:24;100869.22;;;7.11
73734;BMP280;62039;50.000;9.064;2022-11-30T08:25:52;100875.13;;;7.13
73734;BMP280;62039;50.000;9.064;2022-11-30T08:28:18;100877.72;;;7.13
73734;BMP280;62039;50.000;9.064;2022-11-30T08:30:45;100873.34;;;7.14
73734;BMP280;62039;50.000;9.064;2022-11-30T08:33:13;100875.84;;;7.15
73734;BMP280;62039;50.000;9.064;2022-11-30T08:35:39;100882.66;;;7.16
73734;BMP280;62039;50.000;9.064;2022-11-30T08:38:06;100884.31;;;7.17
73734;BMP280;62039;50.000;9.064;2022-11-30T08:40:32;100886.91;;;7.17
73734;BMP280;62039;50.000;9.064;2022-11-30T08:43:00;100885.13;;;7.18
73734;BMP280;62039;50.000;9.064;2022-11-30T08:45:27;100893.06;;;7.16
73734;BMP280;62039;50.000;9.064;2022-11-30T08:47:53;100892.22;;;7.16
73734;BMP280;62039;50.000;9.064;2022-11-30T08:50:20;100895.78;;;7.15
73734;BMP280;62039;50.000;9.064;2022-11-30T08:52:47;100901.22;;;7.12
73734;BMP280;62039;50.000;9.064;2022-11-30T08:55:13;100901.47;;;7.08
73734;BMP280;62039;50.000;9.064;2022-11-30T08:57:40;100906.91;;;7.05
73734;BMP280;62039;50.000;9.064;2022-11-30T09:00:09;100900.34;;;7.01
73734;BMP280;62039;50.000;9.064;2022-11-30T09:02:36;100903.41;;;6.95
73734;BMP280;62039;50.000;9.064;2022-11-30T09:05:03;100910.63;;;6.92
73734;BMP280;62039;50.000;9.064;2022-11-30T09:07:30;100910.06;;;6.88
73734;BMP280;62039;50.000;9.064;2022-11-30T09:09:56;100910.16;;;6.87
73734;BMP280;62039;50.000;9.064;2022-11-30T09:12:23;100917.97;;;6.87
73734;BMP280;62039;50.000;9.064;2022-11-30T09:14:50;100917.84;;;6.88
73734;BMP280;62039;50.000;9.064;2022-11-30T09:17:25;100923.84;;;6.89
73734;BMP280;62039;50.000;9.064;2022-11-30T09:19:51;100916.03;;;6.89
73734;BMP280;62039;50.000;9.064;2022-11-30T09:22:18;100917.69;;;6.90
73734;BMP280;62039;50.000;9.064;2022-11-30T09:24:44;100919.34;;;6.91
73734;BMP280;62039;50.000;9.064;2022-11-30T09:27:11;100917.69;;;6.90
73734;BMP280;62039;50.000;9.064;2022-11-30T09:29:38;100915.09;;;6.90
73734;BMP280;62039;50.000;9.064;2022-11-30T09:32:05;100915.09;;;6.90
73734;BMP280;62039;50.000;9.064;2022-11-30T09:34:33;100920.28;;;6.90
73734;BMP280;62039;50.000;9.064;2022-11-30T09:36:59;100915.94;;;6.90
73734;BMP280;62039;50.000;9.064;2022-11-30T09:39:26;100920.06;;;6.93
73734;BMP280;62039;50.000;9.064;2022-11-30T09:42:10;100921.56;;;6.95
73734;BMP280;62039;50.000;9.064;2022-11-30T09:44:45;100913.66;;;6.97
73734;BMP280;62039;50.000;9.064;2022-11-30T09:47:26;100920.28;;;7.01
73734;BMP280;62039;50.000;9.064;2022-11-30T09:50:02;100920.84;;;7.04
73734;BMP280;62039;50.000;9.064;2022-11-30T09:52:33;100918.13;;;7.06
73734;BMP280;62039;50.000;9.064;2022-11-30T09:55:04;100912.69;;;7.09
73734;BMP280;62039;50.000;9.064;2022-11-30T09:57:36;100910.91;;;7.10
73734;BMP280;62039;50.000;9.064;2022-11-30T10:00:12;100914.09;;;7.13
73734;BMP280;62039;50.000;9.064;2022-11-30T10:02:39;100916.44;;;7.16
73734;BMP280;62039;50.000;9.064;2022-11-30T10:05:13;100910.06;;;7.20
73734;BMP280;62039;50.000;9.064;2022-11-30T10:08:02;100909.81;;;7.23
73734;BMP280;62039;50.000;9.064;2022-11-30T10:10:35;100915.72;;;7.25
73734;BMP280;62039;50.000;9.064;2022-11-30T10:13:13;100909.31;;;7.29
73734;BMP280;62039;50.000;9.064;2022-11-30T10:15:52;100906.34;;;7.34
73734;BMP280;62039;50.000;9.064;2022-11-30T10:18:30;100911.16;;;7.38
73734;BMP280;62039;50.000;9.064;2022-11-30T10:21:06;100905.47;;;7.44
73734;BMP280;62039;50.000;9.064;2022-11-30T10:23:50;100906.06;;;7.48
73734;BMP280;62039;50.000;9.064;2022-11-30T10:26:21;100904.00;;;7.52
73734;BMP280;62039;50.000;9.064;2022-11-30T10:28:53;100910.66;;;7.56
73734;BMP280;62039;50.000;9.064;2022-11-30T10:31:30;100905.19;;;7.59
73734;BMP280;62039;50.000;9.064;2022-11-30T10:34:04;100910.81;;;7.64
73734;BMP280;62039;50.000;9.064;2022-11-30T10:36:41;100905.25;;;7.68
73734;BMP280;62039;50.000;9.064;2022-11-30T10:39:14;100900.63;;;7.72
73734;BMP280;62039;50.000;9.064;2022-11-30T10:41:46;100892.41;;;7.76
73734;BMP280;62039;50.000;9.064;2022-11-30T10:44:16;100890.41;;;7.80
73734;BMP280;62039;50.000;9.064;2022-11-30T10:46:51;100884.69;;;7.86
73734;BMP280;62039;50.000;9.064;2022-11-30T10:49:19;100888.66;;;7.90
73734;BMP280;62039;50.000;9.064;2022-11-30T10:51:50;100887.47;;;7.94
73734;BMP280;62039;50.000;9.064;2022-11-30T10:54:20;100881.03;;;7.98
73734;BMP280;62039;50.000;9.064;2022-11-30T10:56:47;100878.06;;;8.03
73734;BMP280;62039;50.000;9.064;2022-11-30T10:59:18;100880.28;;;8.07
73734;BMP280;62039;50.000;9.064;2022-11-30T11:01:48;100874.66;;;8.12
73734;BMP280;62039;50.000;9.064;2022-11-30T11:04:17;100867.44;;;8.15
73734;BMP280;62039;50.000;9.064;2022-11-30T11:06:45;100869.63;;;8.20
73734;BMP280;62039;50.000;9.064;2022-11-30T11:09:31;100870.19;;;8.23
73734;BMP280;62039;50.000;9.064;2022-11-30T11:11:59;100866.50;;;8.26
73734;BMP280;62039;50.000;9.064;2022-11-30T11:14:27;100876.50;;;8.31
73734;BMP280;62039;50.000;9.064;2022-11-30T11:17:00;100867.50;;;8.35
73734;BMP280;62039;50.000;9.064;2022-11-30T11:19:36;100867.09;;;8.39
73734;BMP280;62039;50.000;9.064;2022-11-30T11:22:06;100864.25;;;8.42
73734;BMP280;62039;50.000;9.064;2022-11-30T11:24:34;100862.88;;;8.48
73734;BMP280;62039;50.000;9.064;2022-11-30T11:27:01;100860.97;;;8.50
73734;BMP280;62039;50.000;9.064;2022-11-30T11:29:30;100861.38;;;8.55
73734;BMP280;62039;50.000;9.064;2022-11-30T11:32:15;100857.69;;;8.57
73734;BMP280;62039;50.000;9.064;2022-11-30T11:34:44;100856.38;;;8.63
73734;BMP280;62039;50.000;9.064;2022-11-30T11:37:19;100856.78;;;8.68
73734;BMP280;62039;50.000;9.064;2022-11-30T11:39:59;100856.25;;;8.74
73734;BMP280;62039;50.000;9.064;2022-11-30T11:42:27;100855.00;;;8.78
73734;BMP280;62039;50.000;9.064;2022-11-30T11:44:56;100858.84;;;8.84
73734;BMP280;62039;50.000;9.064;2022-11-30T11:47:25;100856.81;;;8.87
73734;BMP280;62039;50.000;9.064;2022-11-30T11:50:17;100853.78;;;8.92
73734;BMP280;62039;50.000;9.064;2022-11-30T11:53:14;100858.59;;;8.96
73734;BMP280;62039;50.000;9.064;2022-11-30T11:55:43;100860.78;;;9.01
73734;BMP280;62039;50.000;9.064;2022-11-30T11:58:14;100861.19;;;9.06
73734;BMP280;62039;50.000;9.064;2022-11-30T12:00:43;100858.31;;;9.09
73734;BMP280;62039;50.000;9.064;2022-11-30T12:03:16;100857.06;;;9.13
73734;BMP280;62039;50.000;9.064;2022-11-30T12:05:47;100862.16;;;9.15
73734;BMP280;62039;50.000;9.064;2022-11-30T12:08:21;100854.22;;;9.16
73734;BMP280;62039;50.000;9.064;2022-11-30T12:10:55;100863.81;;;9.16
73734;BMP280;62039;50.000;9.064;2022-11-30T12:13:27;100857.91;;;9.14
73734;BMP280;62039;50.000;9.064;2022-11-30T12:16:03;100858.84;;;9.13
73734;BMP280;62039;50.000;9.064;2022-11-30T12:18:37;100860.63;;;9.12
73734;BMP280;62039;50.000;9.064;2022-11-30T12:21:12;100856.25;;;9.13
73734;BMP280;62039;50.000;9.064;2022-11-30T12:23:53;100862.41;;;9.12
73734;BMP280;62039;50.000;9.064;2022-11-30T12:26:32;100863.66;;;9.08
73734;BMP280;62039;50.000;9.064;2022-11-30T12:29:19;100865.69;;;9.04
73734;BMP280;62039;50.000;9.064;2022-11-30T12:31:58;100868.19;;;9.06
73734;BMP280;62039;50.000;9.064;2022-11-30T12:34:36;100870.78;;;9.06
73734;BMP280;62039;50.000;9.064;2022-11-30T12:37:16;100866.41;;;9.06
73734;BMP280;62039;50.000;9.064;2022-11-30T12:39:52;100869.00;;;9.06
73734;BMP280;62039;50.000;9.064;2022-11-30T12:42:28;100878.59;;;9.06
73734;BMP280;62039;50.000;9.064;2022-11-30T12:45:00;100865.03;;;9.02
73734;BMP280;62039;50.000;9.064;2022-11-30T12:47:42;100876.56;;;8.99
73734;BMP280;62039;50.000;9.064;2022-11-30T12:50:21;100869.03;;;8.96
73734;BMP280;62039;50.000;9.064;2022-11-30T12:52:54;100870.94;;;8.94
73734;BMP280;62039;50.000;9.064;2022-11-30T12:55:30;100884.09;;;8.93
73734;BMP280;62039;50.000;9.064;2022-11-30T12:58:06;100878.34;;;8.89
73734;BMP280;62039;50.000;9.064;2022-11-30T13:00:40;100879.41;;;8.87
73734;BMP280;62039;50.000;9.064;2022-11-30T13:03:30;100886.69;;;8.83
73734;BMP280;62039;50.000;9.064;2022-11-30T13:06:04;100871.31;;;8.80
73734;BMP280;62039;50.000;9.064;2022-11-30T13:08:39;100879.28;;;8.79
73734;BMP280;62039;50.000;9.064;2022-11-30T13:11:13;100872.56;;;8.76
73734;BMP280;62039;50.000;9.064;2022-11-30T13:13:51;100870.09;;;8.75
73734;BMP280;62039;50.000;9.064;2022-11-30T13:16:22;100872.00;;;8.73
73734;BMP280;62039;50.000;9.064;2022-11-30T13:18:51;100862.69;;;8.70
73734;BMP280;62039;50.000;9.064;2022-11-30T13:21:25;100868.16;;;8.67
73734;BMP280;62039;50.000;9.064;2022-11-30T13:23:58;100868.28;;;8.66
73734;BMP280;62039;50.000;9.064;2022-11-30T13:26:32;100870.34;;;8.62
73734;BMP280;62039;50.000;9.064;2022-11-30T13:29:15;100866.47;;;8.56
73734;BMP280;62039;50.000;9.064;2022-11-30T13:31:52;100873.00;;;8.51
73734;BMP280;62039;50.000;9.064;2022-11-30T13:34:23;100863.84;;;8.47
73734;BMP280;62039;50.000;9.064;2022-11-30T13:36:50;100866.69;;;8.44
73734;BMP280;62039;50.000;9.064;2022-11-30T13:39:20;100869.56;;;8.41
73734;BMP280;62039;50.000;9.064;2022-11-30T13:41:49;100869.00;;;8.37
73734;BMP280;62039;50.000;9.064;2022-11-30T13:44:28;100869.41;;;8.33
73734;BMP280;62039;50.000;9.064;2022-11-30T13:46:55;100873.91;;;8.31
73734;BMP280;62039;50.000;9.064;2022-11-30T13:49:24;100879.28;;;8.29
73734;BMP280;62039;50.000;9.064;2022-11-30T13:51:54;100878.69;;;8.25
73734;BMP280;62039;50.000;9.064;2022-11-30T13:54:42;100879.91;;;8.21
73734;BMP280;62039;50.000;9.064;2022-11-30T13:58:05;100881.13;;;8.17
73734;BMP280;62039;50.000;9.064;2022-11-30T14:00:45;100885.19;;;8.10
73734;BMP280;62039;50.000;9.064;2022-11-30T14:03:23;100883.00;;;8.06
73734;BMP280;62039;50.000;9.064;2022-11-30T14:05:50;100887.50;;;8.04
73734;BMP280;62039;50.000;9.064;2022-11-30T14:08:38;100889.56;;;8.00
73734;BMP280;62039;50.000;9.064;2022-11-30T14:11:38;100887.34;;;7.96
73734;BMP280;62039;50.000;9.064;2022-11-30T14:17:16;100891.25;;;7.90
73734;BMP280;62039;50.000;9.064;2022-11-30T14:19:44;100888.00;;;7.88
73734;BMP280;62039;50.000;9.064;2022-11-30T14:22:12;100882.91;;;7.87
73734;BMP280;62039;50.000;9.064;2022-11-30T14:24:41;100890.00;;;7.84
73734;BMP280;62039;50.000;9.064;2022-11-30T14:27:14;100892.88;;;7.81
73734;BMP280;62039;50.000;9.064;2022-11-30T14:29:42;100896.56;;;7.79
73734;BMP280;62039;50.000;9.064;2022-11-30T14:32:11;100897.50;;;7.78